Time;durP1;ratioP1;P1;durP2;ratioP2;P2;SDS_P1;SDS_P2;PMS_P1;PMS_P2;Temp;Humidity;BMP_temperature;BMP_pressure;BME280_temperature;BME280_humidity;BME280_pressure;Samples;Min_cycle;Max_cycle;Signal;HPM_P1;HPM_P2
2022/03/05 00:01:24;;;;;;;25.00;15.10;;;;;;;2.73;55.80;100474.31;117399;1186;24219;-56
2022/03/05 00:03:53;;;;;;;20.20;14.30;;;;;;;2.72;55.66;100471.51;117362;1185;21846;-55
2022/03/05 00:06:22;;;;;;;23.40;15.40;;;;;;;2.71;55.67;100476.68;117408;1185;21836;-55
2022/03/05 00:08:51;;;;;;;20.80;14.20;;;;;;;2.69;55.72;100478.73;117403;1185;23502;-54
2022/03/05 00:11:20;;;;;;;22.30;14.70;;;;;;;2.68;55.72;100479.92;117376;1185;22630;-54
2022/03/05 00:13:48;;;;;;;21.10;13.60;;;;;;;2.67;55.76;100478.70;117383;1185;23563;-57
2022/03/05 00:16:17;;;;;;;18.60;13.20;;;;;;;2.67;55.71;100475.92;117369;1185;24127;-57
2022/03/05 00:18:49;;;;;;;19.70;13.60;;;;;;;2.67;55.64;100476.61;117310;1185;23517;-54
2022/03/05 00:21:18;;;;;;;;;;;;;;;2.69;55.83;100474.91;117329;1185;21830;-54
2022/03/05 00:23:46;;;;;;;19.00;12.70;;;;;;;2.69;55.69;100472.49;117329;1185;23557;-54
2022/03/05 00:26:16;;;;;;;21.30;13.70;;;;;;;2.68;55.62;100473.52;117302;1185;23531;-57
2022/03/05 00:28:45;;;;;;;20.20;13.90;;;;;;;2.67;55.78;100475.91;117342;1185;21847;-54
2022/03/05 00:31:13;;;;;;;19.60;13.40;;;;;;;2.68;55.76;100474.02;117356;1185;21847;-54
2022/03/05 00:33:42;;;;;;;22.10;15.50;;;;;;;2.68;55.83;100473.15;117358;1185;22928;-54
2022/03/05 00:36:11;;;;;;;21.80;14.70;;;;;;;2.67;55.77;100475.73;117320;1185;21858;-54
2022/03/05 00:38:40;;;;;;;22.50;14.70;;;;;;;2.65;55.59;100474.15;117320;1185;23517;-57
2022/03/05 00:41:08;;;;;;;21.00;15.40;;;;;;;2.62;55.65;100473.40;117313;1185;21853;-54
2022/03/05 00:43:37;;;;;;;22.40;15.30;;;;;;;2.59;55.74;100473.48;117285;1185;22909;-54
2022/03/05 00:46:06;;;;;;;21.60;14.90;;;;;;;2.55;55.54;100475.14;117392;1185;21845;-54
2022/03/05 00:48:34;;;;;;;24.50;15.40;;;;;;;2.51;55.76;100475.22;117343;1185;23797;-57
2022/03/05 00:51:04;;;;;;;23.40;15.80;;;;;;;2.47;55.44;100469.08;117390;1180;22909;-54
2022/03/05 00:53:33;;;;;;;20.70;12.20;;;;;;;2.44;55.59;100467.95;117344;1185;21849;-54
2022/03/05 00:56:01;;;;;;;21.50;15.40;;;;;;;2.40;55.42;100466.33;117318;1185;21858;-54
2022/03/05 00:58:30;;;;;;;23.00;15.80;;;;;;;2.37;55.61;100464.34;117364;1185;22999;-54
2022/03/05 01:00:59;;;;;;;24.20;16.90;;;;;;;2.35;55.61;100468.80;117324;1186;22719;-57
2022/03/05 01:03:28;;;;;;;25.20;17.10;;;;;;;2.31;55.58;100467.33;117336;1185;23554;-57
2022/03/05 01:05:57;;;;;;;22.80;15.70;;;;;;;2.28;55.63;100467.77;117397;1185;21958;-54
2022/03/05 01:08:26;;;;;;;24.40;17.00;;;;;;;2.28;55.70;100471.25;117327;1185;23627;-57
2022/03/05 01:10:54;;;;;;;26.20;17.10;;;;;;;2.33;55.59;100468.91;117382;1185;22970;-57
2022/03/05 01:13:22;;;;;;;24.70;17.60;;;;;;;2.29;55.59;100467.10;117351;1185;21882;-54
2022/03/05 01:15:51;;;;;;;27.40;17.70;;;;;;;2.26;55.78;100467.04;117364;1185;24168;-58
2022/03/05 01:18:19;;;;;;;29.70;18.60;;;;;;;2.27;55.64;100471.20;117329;1186;21964;-54
2022/03/05 01:20:48;;;;;;;28.50;19.00;;;;;;;2.26;55.70;100469.96;117372;1185;23523;-54
2022/03/05 01:23:17;;;;;;;24.70;17.30;;;;;;;2.25;55.67;100472.04;117393;1186;21858;-58
2022/03/05 01:25:45;;;;;;;29.90;18.90;;;;;;;2.29;55.67;100468.16;117303;1185;22949;-53
2022/03/05 01:28:14;;;;;;;24.80;17.10;;;;;;;2.34;55.75;100469.32;117388;1185;22750;-54
2022/03/05 01:30:42;;;;;;;29.90;18.50;;;;;;;2.38;55.62;100473.22;117439;1185;24281;-55
2022/03/05 01:33:15;;;;;;;29.00;18.70;;;;;;;2.42;55.61;100474.86;117376;1185;24252;-57
2022/03/05 01:35:44;;;;;;;26.40;18.60;;;;;;;2.44;55.56;100474.55;117388;1185;24249;-58
2022/03/05 01:38:13;;;;;;;24.20;16.40;;;;;;;2.48;55.57;100479.47;117333;1185;21855;-57
2022/03/05 01:40:42;;;;;;;25.10;17.50;;;;;;;2.51;55.70;100477.64;117342;1185;22712;-57
2022/03/05 01:43:10;;;;;;;22.80;16.30;;;;;;;2.54;55.69;100482.22;117352;1186;23535;-57
2022/03/05 01:45:39;;;;;;;27.00;18.00;;;;;;;2.55;55.66;100483.44;117344;1185;23547;-55
2022/03/05 01:48:07;;;;;;;26.60;17.10;;;;;;;2.56;55.75;100481.90;117330;1185;23028;-54
2022/03/05 01:50:36;;;;;;;24.50;16.50;;;;;;;2.57;55.81;100479.16;117320;1185;22646;-58
2022/03/05 01:53:04;;;;;;;24.20;16.00;;;;;;;2.60;55.81;100481.13;117277;1185;22614;-54
2022/03/05 01:55:33;;;;;;;23.70;15.30;;;;;;;2.61;55.80;100482.03;117308;1185;23439;-58
2022/03/05 01:58:03;;;;;;;22.90;16.10;;;;;;;2.55;55.76;100483.61;117338;1179;21894;-55
2022/03/05 02:00:31;;;;;;;26.00;17.10;;;;;;;2.50;55.81;100482.13;117195;1186;22621;-58
2022/03/05 02:03:00;;;;;;;23.30;16.70;;;;;;;2.48;55.84;100484.00;117356;1185;23449;-58
2022/03/05 02:05:29;;;;;;;28.00;18.40;;;;;;;2.48;55.84;100486.41;117298;1186;23523;-54
2022/03/05 02:07:58;;;;;;;24.90;17.40;;;;;;;2.54;55.87;100490.36;117370;1185;21850;-57
2022/03/05 02:10:31;;;;;;;21.70;14.90;;;;;;;2.57;55.76;100495.29;117344;1185;23431;-57
2022/03/05 02:12:59;;;;;;;24.90;17.40;;;;;;;2.57;55.78;100492.16;117372;1185;22912;-57
2022/03/05 02:15:28;;;;;;;23.40;16.60;;;;;;;2.56;55.71;100493.35;117364;1189;23468;-54
2022/03/05 02:17:56;;;;;;;25.70;17.50;;;;;;;2.57;55.66;100493.89;117265;1185;22875;-55
2022/03/05 02:20:28;;;;;;;27.50;17.10;;;;;;;2.59;55.70;100493.58;117306;1185;24627;-58
2022/03/05 02:22:57;;;;;;;21.60;15.20;;;;;;;2.59;55.67;100496.71;117348;1185;22844;-58
2022/03/05 02:25:25;;;;;;;23.10;16.50;;;;;;;2.60;55.76;100500.71;117339;1185;22620;-55
2022/03/05 02:27:55;;;;;;;23.80;16.30;;;;;;;2.61;55.55;100498.14;117354;1186;23481;-58
2022/03/05 02:30:24;;;;;;;24.60;16.40;;;;;;;2.62;55.74;100500.07;117346;1185;21846;-58
2022/03/05 02:32:52;;;;;;;23.40;15.90;;;;;;;2.64;55.69;100499.60;117362;1185;21850;-57
2022/03/05 02:35:21;;;;;;;22.60;15.70;;;;;;;2.66;55.68;100502.23;117386;1185;24143;-54
2022/03/05 02:37:50;;;;;;;27.20;17.40;;;;;;;2.67;55.78;100502.26;117379;1185;23554;-57
2022/03/05 02:40:18;;;;;;;24.90;17.70;;;;;;;2.67;55.80;100498.43;117340;1186;22951;-57
2022/03/05 02:42:47;;;;;;;26.00;17.60;;;;;;;2.70;55.76;100499.02;117369;1184;23283;-57
2022/03/05 02:45:15;;;;;;;25.70;17.70;;;;;;;2.65;55.78;100497.36;117390;1186;21861;-58
2022/03/05 02:47:44;;;;;;;26.80;18.40;;;;;;;2.68;55.96;100497.27;117375;1185;23462;-54
2022/03/05 02:50:12;;;;;;;27.70;17.60;;;;;;;2.76;55.91;100497.42;117343;1185;21903;-55
2022/03/05 02:52:41;;;;;;;28.30;19.40;;;;;;;2.78;55.81;100492.96;117384;1185;24166;-57
2022/03/05 02:55:10;;;;;;;28.70;19.50;;;;;;;2.80;55.80;100496.81;117274;1186;22825;-56
2022/03/05 02:57:38;;;;;;;25.10;17.00;;;;;;;2.75;55.91;100494.63;117341;1185;21898;-57
2022/03/05 03:00:08;;;;;;;28.10;19.90;;;;;;;2.80;55.96;100494.23;117338;1186;21894;-55
2022/03/05 03:02:37;;;;;;;30.60;18.90;;;;;;;2.82;55.69;100497.20;117281;1185;23613;-54
2022/03/05 03:05:07;;;;;;;31.40;19.20;;;;;;;2.81;55.76;100499.10;117303;1185;21855;-58
2022/03/05 03:07:35;;;;;;;30.00;20.10;;;;;;;2.79;55.79;100495.08;117408;1185;23631;-57
2022/03/05 03:10:05;;;;;;;28.70;19.20;;;;;;;2.77;55.74;100500.22;117300;1181;21847;-57
2022/03/05 03:12:35;;;;;;;30.60;19.60;;;;;;;2.74;55.65;100499.45;117306;1186;24137;-57
2022/03/05 03:15:05;;;;;;;27.30;18.00;;;;;;;2.71;55.69;100507.35;117327;1185;22932;-55
2022/03/05 03:17:44;;;;;;;29.20;18.90;;;;;;;2.61;55.60;100511.48;117496;1185;21851;-57
2022/03/05 03:20:32;;;;;;;28.60;19.80;;;;;;;2.63;55.66;100514.81;117296;1183;23057;-57
2022/03/05 03:23:01;;;;;;;26.70;18.30;;;;;;;2.59;55.60;100515.25;117366;1185;21948;-56
2022/03/05 03:25:30;;;;;;;26.80;17.60;;;;;;;2.55;55.59;100517.06;117308;1185;21849;-57
2022/03/05 03:27:58;;;;;;;28.00;19.10;;;;;;;2.49;55.57;100518.66;117341;1182;22924;-56
2022/03/05 03:30:27;;;;;;;28.30;19.00;;;;;;;2.43;55.53;100519.91;117371;1179;23500;-57
2022/03/05 03:32:55;;;;;;;28.60;20.10;;;;;;;2.38;55.71;100524.98;117369;1185;24158;-55
2022/03/05 03:35:24;;;;;;;30.20;20.10;;;;;;;2.33;55.72;100527.80;117360;1185;22805;-57
2022/03/05 03:37:52;;;;;;;28.30;18.90;;;;;;;2.31;55.63;100528.98;117334;1185;24267;-54
2022/03/05 03:40:21;;;;;;;27.00;18.80;;;;;;;2.29;55.65;100528.40;117275;1185;23457;-56
2022/03/05 03:42:50;;;;;;;27.10;17.70;;;;;;;2.27;55.57;100532.16;117358;1185;22899;-56
2022/03/05 03:45:19;;;;;;;28.10;18.90;;;;;;;2.23;55.69;100533.80;117323;1185;21861;-57
2022/03/05 03:47:48;;;;;;;28.30;18.20;;;;;;;2.16;55.77;100534.70;117373;1185;23592;-57
2022/03/05 03:50:19;;;;;;;27.40;18.10;;;;;;;2.16;55.83;100535.19;117293;1185;22913;-56
2022/03/05 03:52:49;;;;;;;29.40;19.00;;;;;;;2.15;55.87;100533.45;117194;1182;21879;-57
2022/03/05 03:55:19;;;;;;;34.20;19.50;;;;;;;2.18;55.92;100535.95;117339;1185;22886;-54
2022/03/05 03:57:48;;;;;;;29.30;18.40;;;;;;;2.17;55.90;100538.87;117346;1186;23529;-58
2022/03/05 04:00:17;;;;;;;25.60;17.80;;;;;;;2.20;55.91;100535.98;117352;1185;21846;-57
2022/03/05 04:02:46;;;;;;;28.30;18.00;;;;;;;2.22;56.08;100540.35;117404;1185;21839;-57
2022/03/05 04:05:14;;;;;;;29.00;18.30;;;;;;;2.24;56.05;100541.45;117320;1181;22970;-54
2022/03/05 04:10:31;;;;;;;26.80;19.10;;;;;;;2.26;56.15;100543.39;117353;1185;23507;-54
2022/03/05 04:12:59;;;;;;;27.50;18.60;;;;;;;2.27;55.95;100544.13;117378;1185;23439;-54
2022/03/05 04:15:28;;;;;;;30.90;19.70;;;;;;;2.28;55.92;100548.46;117381;1184;21900;-54
2022/03/05 04:17:56;;;;;;;26.80;19.10;;;;;;;2.30;56.02;100550.25;117381;1186;22717;-54
2022/03/05 04:20:30;;;;;;;27.20;17.50;;;;;;;2.37;55.84;100552.01;117302;1183;21848;-54
2022/03/05 04:22:59;;;;;;;29.40;18.30;;;;;;;2.41;55.87;100549.83;117309;1185;21848;-57
2022/03/05 04:25:28;;;;;;;29.40;19.40;;;;;;;2.39;55.96;100553.42;117366;1185;21849;-57
2022/03/05 04:27:56;;;;;;;27.70;18.60;;;;;;;2.43;56.10;100556.10;117347;1185;21901;-57
2022/03/05 04:30:25;;;;;;;28.20;19.10;;;;;;;2.49;56.12;100558.50;117400;1185;23445;-54
2022/03/05 04:32:54;;;;;;;30.80;19.80;;;;;;;2.57;55.82;100560.77;117368;1185;23490;-53
2022/03/05 04:35:22;;;;;;;26.80;17.20;;;;;;;2.60;55.89;100558.57;117319;1184;21911;-53
2022/03/05 04:37:51;;;;;;;30.30;20.20;;;;;;;2.62;55.81;100561.91;117375;1188;22989;-57
2022/03/05 04:40:20;;;;;;;31.50;20.60;;;;;;;2.64;55.99;100561.97;117371;1185;21954;-58
2022/03/05 04:42:49;;;;;;;31.00;20.40;;;;;;;2.66;55.89;100566.17;117378;1185;22070;-54
2022/03/05 04:45:17;;;;;;;30.30;20.00;;;;;;;2.69;55.85;100567.45;117407;1185;21855;-54
2022/03/05 04:47:46;;;;;;;29.20;19.00;;;;;;;2.74;55.80;100570.33;117333;1185;21859;-56
2022/03/05 04:50:15;;;;;;;30.40;20.30;;;;;;;2.72;55.81;100573.40;117359;1185;23425;-55
2022/03/05 04:52:43;;;;;;;34.10;20.90;;;;;;;2.71;55.84;100573.54;117374;1185;21847;-54
2022/03/05 04:55:12;;;;;;;28.90;19.60;;;;;;;2.72;55.77;100574.59;117294;1185;24219;-54
2022/03/05 04:57:41;;;;;;;27.80;18.90;;;;;;;2.73;55.69;100577.08;117348;1185;23080;-54
2022/03/05 05:00:11;;;;;;;30.50;20.70;;;;;;;2.74;56.01;100579.69;117275;1185;23582;-57
2022/03/05 05:02:39;;;;;;;30.30;20.40;;;;;;;2.76;55.94;100582.50;117341;1185;21841;-54
2022/03/05 05:05:09;;;;;;;28.40;18.20;;;;;;;2.77;55.88;100585.84;117365;1185;21846;-54
2022/03/05 05:07:38;;;;;;;22.90;15.50;;;;;;;2.79;55.81;100586.04;117357;1185;21857;-53
2022/03/05 05:10:07;;;;;;;29.40;19.60;;;;;;;2.80;55.84;100590.05;117371;1185;23624;-54
2022/03/05 05:12:36;;;;;;;25.90;18.60;;;;;;;2.78;55.96;100591.73;117353;1185;23470;-54
2022/03/05 05:15:05;;;;;;;30.30;20.00;;;;;;;2.76;56.12;100592.20;117336;1185;23252;-57
2022/03/05 05:17:37;;;;;;;32.20;19.70;;;;;;;2.80;56.02;100598.89;117333;1185;23580;-54
2022/03/05 05:20:07;;;;;;;30.20;19.30;;;;;;;2.80;56.05;100599.23;117372;1185;21844;-54
2022/03/05 05:22:36;;;;;;;27.80;18.40;;;;;;;2.80;56.10;100602.02;117370;1185;22929;-54
2022/03/05 05:25:05;;;;;;;28.60;18.90;;;;;;;2.81;56.03;100605.67;117348;1185;23560;-57
2022/03/05 05:27:37;;;;;;;29.20;19.50;;;;;;;2.78;56.08;100606.30;117366;1185;21861;-57
2022/03/05 05:30:06;;;;;;;28.90;19.20;;;;;;;2.80;56.14;100608.95;117363;1185;21891;-57
2022/03/05 05:32:35;;;;;;;25.20;17.90;;;;;;;2.82;56.21;100609.70;117466;1183;21859;-52
2022/03/05 05:35:04;;;;;;;27.50;19.40;;;;;;;2.83;56.19;100612.14;117421;1185;23679;-57
2022/03/05 05:37:33;;;;;;;28.40;18.70;;;;;;;2.81;56.18;100612.63;117355;1185;23622;-57
2022/03/05 05:40:02;;;;;;;31.70;20.10;;;;;;;2.82;56.13;100618.89;117379;1185;22084;-56
2022/03/05 05:42:30;;;;;;;25.60;18.40;;;;;;;2.84;56.26;100621.87;117359;1185;23454;-57
2022/03/05 05:44:59;;;;;;;28.30;19.20;;;;;;;2.85;56.12;100626.91;117340;1185;23512;-54
2022/03/05 05:47:28;;;;;;;24.60;17.50;;;;;;;2.86;56.12;100628.84;117271;1185;21855;-54
2022/03/05 05:49:56;;;;;;;24.30;17.40;;;;;;;2.86;56.15;100632.66;117370;1185;21852;-58
2022/03/05 05:52:26;;;;;;;28.00;18.80;;;;;;;2.86;56.23;100633.52;117337;1184;22135;-58
2022/03/05 05:54:54;;;;;;;28.30;19.10;;;;;;;2.87;56.14;100636.84;117334;1185;21855;-57
2022/03/05 05:57:23;;;;;;;26.40;17.60;;;;;;;2.89;56.28;100641.73;117330;1185;23558;-58
2022/03/05 05:59:51;;;;;;;27.20;18.30;;;;;;;2.89;56.20;100642.06;117330;1185;21858;-59
2022/03/05 06:02:21;;;;;;;28.40;18.30;;;;;;;2.89;56.21;100643.11;117367;1185;23563;-54
2022/03/05 06:04:50;;;;;;;30.40;19.90;;;;;;;2.90;56.32;100645.40;117336;1185;23654;-55
2022/03/05 06:07:19;;;;;;;26.30;18.40;;;;;;;2.90;56.17;100648.52;117369;1185;23483;-58
2022/03/05 06:09:48;;;;;;;27.80;18.00;;;;;;;2.93;56.47;100652.74;117342;1185;22805;-57
2022/03/05 06:12:17;;;;;;;26.10;16.80;;;;;;;3.02;56.48;100654.35;117342;1185;23580;-53
2022/03/05 06:14:46;;;;;;;27.80;18.30;;;;;;;3.07;56.49;100654.80;117331;1185;21987;-54
2022/03/05 06:17:14;;;;;;;27.70;17.30;;;;;;;3.06;56.26;100658.77;117335;1185;21852;-54
2022/03/05 06:19:44;;;;;;;28.60;19.00;;;;;;;3.04;56.28;100660.47;117370;1185;22910;-54
2022/03/05 06:22:12;;;;;;;28.40;18.30;;;;;;;3.03;56.39;100661.29;117365;1185;21860;-54
2022/03/05 06:24:41;;;;;;;28.00;19.10;;;;;;;3.03;56.26;100665.79;117288;1177;23429;-54
2022/03/05 06:27:10;;;;;;;25.50;17.40;;;;;;;3.01;56.31;100666.27;117349;1185;23000;-54
2022/03/05 06:29:38;;;;;;;29.10;18.30;;;;;;;2.99;56.34;100667.81;117385;1185;21971;-59
2022/03/05 06:32:08;;;;;;;30.00;18.50;;;;;;;2.97;56.27;100668.44;117349;1185;22707;-57
2022/03/05 06:34:36;;;;;;;27.50;18.60;;;;;;;2.95;56.20;100667.54;117389;1185;23494;-57
2022/03/05 06:37:05;;;;;;;28.30;16.80;;;;;;;2.98;56.40;100669.86;117387;1185;21858;-58
2022/03/05 06:39:34;;;;;;;24.50;16.80;;;;;;;2.99;56.40;100668.85;117358;1184;22912;-58
2022/03/05 06:42:03;;;;;;;28.50;18.00;;;;;;;2.98;56.21;100671.76;117369;1182;21839;-55
2022/03/05 06:44:35;;;;;;;25.00;17.10;;;;;;;2.96;56.45;100666.35;117363;1186;22311;-58
2022/03/05 06:47:05;;;;;;;27.50;17.00;;;;;;;2.96;56.34;100667.73;117354;1185;24128;-59
2022/03/05 06:49:33;;;;;;;25.60;16.80;;;;;;;2.96;56.49;100671.38;117399;1182;23294;-57
2022/03/05 06:52:03;;;;;;;26.40;17.40;;;;;;;2.97;56.34;100673.13;117399;1185;23621;-55
2022/03/05 06:54:32;;;;;;;27.00;17.90;;;;;;;2.98;56.39;100679.21;117379;1185;22841;-58
2022/03/05 06:57:00;;;;;;;25.40;16.70;;;;;;;2.99;56.47;100678.04;117415;1185;21859;-55
2022/03/05 06:59:29;;;;;;;26.60;17.90;;;;;;;3.01;56.41;100679.98;117422;1185;21913;-58
2022/03/05 07:01:57;;;;;;;25.60;17.50;;;;;;;3.05;56.39;100676.08;117405;1182;21837;-57
2022/03/05 07:04:26;;;;;;;21.60;16.20;;;;;;;3.07;56.53;100674.05;117339;1188;24287;-55
2022/03/05 07:06:55;;;;;;;26.80;17.90;;;;;;;3.09;56.46;100677.55;117377;1185;24217;-58
2022/03/05 07:09:23;;;;;;;25.70;17.70;;;;;;;3.11;56.55;100678.83;117394;1185;23637;-55
2022/03/05 07:11:52;;;;;;;28.90;18.70;;;;;;;3.11;56.44;100676.05;117336;1185;24325;-58
2022/03/05 07:14:20;;;;;;;30.50;18.80;;;;;;;3.19;56.45;100679.86;117334;1185;24210;-58
2022/03/05 07:16:49;;;;;;;27.30;18.70;;;;;;;3.24;56.51;100683.46;117361;1185;23593;-58
2022/03/05 07:19:17;;;;;;;27.20;18.50;;;;;;;3.31;56.51;100687.23;117405;1181;21839;-54
2022/03/05 07:21:47;;;;;;;28.70;18.60;;;;;;;3.37;56.46;100684.59;117383;1185;22158;-55
2022/03/05 07:24:16;;;;;;;28.90;18.60;;;;;;;3.37;56.52;100684.77;117399;1185;21856;-55
2022/03/05 07:26:44;;;;;;;27.40;19.00;;;;;;;3.39;56.55;100685.16;117337;1185;23472;-55
2022/03/05 07:29:13;;;;;;;29.10;19.10;;;;;;;3.43;56.37;100689.41;117348;1185;23456;-57
2022/03/05 07:31:42;;;;;;;25.90;18.30;;;;;;;3.45;56.66;100691.73;117404;1184;22906;-55
2022/03/05 07:34:10;;;;;;;29.30;18.00;;;;;;;3.47;56.67;100690.38;117462;1183;21859;-58
2022/03/05 07:36:39;;;;;;;28.80;19.60;;;;;;;3.51;56.64;100692.02;117358;1185;24187;-59
2022/03/05 07:39:08;;;;;;;27.50;18.50;;;;;;;3.53;56.57;100697.09;117350;1185;21881;-58
2022/03/05 07:41:36;;;;;;;26.30;17.90;;;;;;;3.56;56.55;100692.11;117337;1185;23472;-58
2022/03/05 07:44:06;;;;;;;28.40;18.10;;;;;;;3.57;56.52;100689.53;117403;1184;21976;-57
2022/03/05 07:46:37;;;;;;;29.40;18.90;;;;;;;3.60;56.69;100691.50;117378;1184;22913;-58
2022/03/05 07:49:06;;;;;;;24.80;17.00;;;;;;;3.65;56.71;100688.33;117386;1183;21847;-58
2022/03/05 07:51:34;;;;;;;24.10;16.60;;;;;;;3.65;56.70;100687.81;117315;1185;21854;-55
2022/03/05 07:54:04;;;;;;;24.10;17.20;;;;;;;3.64;56.57;100690.56;117367;1186;21979;-54
2022/03/05 07:56:32;;;;;;;28.80;18.10;;;;;;;3.63;56.66;100692.09;117380;1185;23548;-58
2022/03/05 07:59:01;;;;;;;26.70;16.70;;;;;;;3.64;56.69;100694.36;117374;1183;23641;-58
2022/03/05 08:01:29;;;;;;;26.10;18.60;;;;;;;3.66;56.65;100696.85;117400;1186;23250;-58
2022/03/05 08:03:58;;;;;;;24.90;16.40;;;;;;;3.71;56.83;100695.41;117309;1184;23531;-57
2022/03/05 08:06:27;;;;;;;27.80;18.40;;;;;;;3.76;56.45;100695.30;117283;1185;23465;-55
2022/03/05 08:09:06;;;;;;;25.50;16.30;;;;;;;3.73;56.56;100692.84;117302;1185;23475;-56
2022/03/05 08:11:54;;;;;;;28.00;18.70;;;;;;;3.72;56.46;100696.10;117302;1184;21921;-55
2022/03/05 08:14:23;;;;;;;25.50;17.80;;;;;;;3.71;56.49;100698.35;117298;1185;23614;-58
2022/03/05 08:16:52;;;;;;;29.80;19.60;;;;;;;3.72;56.55;100700.11;117341;1185;22711;-58
2022/03/05 08:19:21;;;;;;;38.30;22.00;;;;;;;3.79;56.55;100709.77;117308;1185;22985;-58
2022/03/05 08:22:09;;;;;;;26.70;17.50;;;;;;;3.85;56.59;100711.65;117311;1185;21903;-55
2022/03/05 08:24:38;;;;;;;23.60;15.50;;;;;;;3.85;56.71;100713.38;117318;1185;24119;-57
2022/03/05 08:27:07;;;;;;;24.90;16.70;;;;;;;3.83;56.59;100718.20;117348;1185;22626;-59
2022/03/05 08:29:36;;;;;;;25.30;15.80;;;;;;;3.78;56.50;100718.77;117371;1185;21852;-58
2022/03/05 08:32:06;;;;;;;21.00;15.10;;;;;;;3.74;56.54;100718.04;117336;1182;21847;-58
2022/03/05 08:34:34;;;;;;;20.40;14.60;;;;;;;3.76;56.64;100717.19;117306;1185;24207;-58
2022/03/05 08:37:03;;;;;;;25.70;16.40;;;;;;;3.82;56.87;100720.77;117812;1185;23740;-55
2022/03/05 08:39:31;;;;;;;24.20;16.30;;;;;;;3.84;56.78;100718.05;117367;1185;23526;-58
2022/03/05 08:42:00;;;;;;;25.10;16.60;;;;;;;3.85;56.69;100719.29;117381;1185;24280;-55
2022/03/05 08:44:29;;;;;;;23.60;16.10;;;;;;;3.87;56.69;100717.06;117335;1185;21892;-55
2022/03/05 08:46:58;;;;;;;22.90;15.20;;;;;;;3.85;56.63;100718.95;117329;1185;23591;-57
2022/03/05 08:49:26;;;;;;;24.30;17.30;;;;;;;3.85;56.66;100717.89;117401;1181;21998;-58
2022/03/05 08:51:55;;;;;;;24.80;17.00;;;;;;;3.86;56.70;100722.25;117393;1185;23397;-58
2022/03/05 08:54:25;;;;;;;22.30;15.40;;;;;;;3.90;56.66;100724.05;117325;1185;23431;-58
2022/03/05 08:56:53;;;;;;;26.40;18.60;;;;;;;3.93;56.69;100726.73;117383;1185;21850;-58
2022/03/05 08:59:22;;;;;;;25.50;16.70;;;;;;;3.95;56.74;100729.91;117392;1185;21851;-55
2022/03/05 09:01:50;;;;;;;27.40;17.10;;;;;;;3.98;56.85;100729.10;117385;1185;24249;-55
2022/03/05 09:04:19;;;;;;;23.40;15.90;;;;;;;3.99;56.76;100732.40;117388;1185;21849;-58
2022/03/05 09:06:48;;;;;;;24.20;16.20;;;;;;;3.98;56.68;100732.56;117319;1185;23449;-58
2022/03/05 09:09:18;;;;;;;24.40;16.60;;;;;;;3.99;56.64;100731.19;118147;1185;21846;-55
2022/03/05 09:11:46;;;;;;;24.50;17.60;;;;;;;4.00;56.55;100734.52;117938;1185;22619;-57
2022/03/05 09:14:15;;;;;;;24.20;16.70;;;;;;;4.04;56.66;100732.85;117333;1185;23889;-58
2022/03/05 09:16:45;;;;;;;22.60;15.00;;;;;;;4.05;56.76;100732.36;117331;1185;21967;-55
2022/03/05 09:19:14;;;;;;;27.30;17.40;;;;;;;4.07;56.65;100730.14;117404;1185;21877;-56
2022/03/05 09:21:42;;;;;;;24.70;16.20;;;;;;;4.11;56.66;100731.27;117347;1185;22999;-57
2022/03/05 09:24:11;;;;;;;27.70;17.10;;;;;;;4.18;56.77;100734.53;117379;1185;21892;-56
2022/03/05 09:26:40;;;;;;;25.20;17.50;;;;;;;4.24;56.86;100733.25;117380;1179;21901;-58
2022/03/05 09:29:09;;;;;;;25.10;15.90;;;;;;;4.28;56.72;100732.83;117299;1185;22620;-57
2022/03/05 09:31:39;;;;;;;24.50;16.90;;;;;;;4.34;56.76;100736.74;117308;1185;23649;-56
2022/03/05 09:34:10;;;;;;;30.50;18.80;;;;;;;4.38;56.89;100742.54;117329;1185;22869;-58
2022/03/05 09:36:38;;;;;;;26.80;16.80;;;;;;;4.43;56.99;100741.77;117381;1185;23438;-57
2022/03/05 09:39:08;;;;;;;38.70;21.90;;;;;;;4.48;57.04;100745.50;117305;1181;23519;-57
2022/03/05 09:41:39;;;;;;;28.60;18.30;;;;;;;4.54;57.02;100748.40;117409;1185;23632;-57
2022/03/05 09:44:08;;;;;;;22.40;14.70;;;;;;;4.63;57.10;100746.30;117358;1183;21944;-56
2022/03/05 09:46:37;;;;;;;25.30;14.40;;;;;;;4.70;57.00;100748.67;117332;1185;23626;-56
2022/03/05 09:49:05;;;;;;;23.70;14.90;;;;;;;4.80;57.10;100748.68;117441;1185;21916;-57
2022/03/05 09:51:35;;;;;;;21.90;15.10;;;;;;;4.95;57.26;100746.85;117176;1187;23560;-58
2022/03/05 09:54:04;;;;;;;18.50;12.90;;;;;;;5.07;57.27;100747.39;117407;1182;21855;-55
2022/03/05 09:56:33;;;;;;;16.40;11.00;;;;;;;5.13;57.07;100748.88;117319;1185;21904;-56
2022/03/05 09:59:01;;;;;;;15.20;9.70;;;;;;;5.20;57.00;100747.61;117373;1185;24143;-57
2022/03/05 10:01:30;;;;;;;13.50;8.60;;;;;;;5.24;56.91;100743.48;117344;1185;23477;-58
2022/03/05 10:04:02;;;;;;;14.30;9.30;;;;;;;5.27;57.15;100744.05;117077;1187;22932;-55
2022/03/05 10:06:30;;;;;;;11.80;8.40;;;;;;;5.28;56.78;100745.65;117368;1185;21937;-55
2022/03/05 10:08:59;;;;;;;12.90;8.70;;;;;;;5.31;56.80;100745.84;117319;1185;23433;-58
2022/03/05 10:11:38;;;;;;;12.80;8.50;;;;;;;5.30;56.74;100743.40;117237;1187;22991;-57
2022/03/05 10:14:17;;;;;;;13.50;9.10;;;;;;;5.29;56.73;100750.34;117353;1184;22667;-56
2022/03/05 10:16:45;;;;;;;12.30;8.80;;;;;;;5.33;56.74;100744.48;118260;1183;23664;-56
2022/03/05 10:19:32;;;;;;;11.10;7.40;;;;;;;5.38;56.58;100745.60;117357;1186;21853;-57
2022/03/05 10:22:20;;;;;;;11.70;7.80;;;;;;;5.36;56.31;100745.23;117275;1185;21849;-56
2022/03/05 10:24:50;;;;;;;9.80;6.90;;;;;;;5.36;56.31;100746.27;117418;1185;23345;-55
2022/03/05 10:27:18;;;;;;;10.60;6.80;;;;;;;5.38;56.42;100745.42;117102;1187;24264;-57
2022/03/05 10:29:47;;;;;;;9.40;7.30;;;;;;;5.39;56.43;100743.02;117451;1185;23583;-57
2022/03/05 10:32:18;;;;;;;9.00;6.30;;;;;;;5.46;56.65;100746.08;117168;1187;22583;-56
2022/03/05 10:34:48;;;;;;;8.60;5.90;;;;;;;5.49;56.87;100746.30;117388;1185;23359;-57
2022/03/05 10:37:17;;;;;;;;;;;;;;;5.52;56.84;100742.85;117524;1183;21841;-57
2022/03/05 10:39:49;;;;;;;8.00;5.30;;;;;;;5.52;56.84;100739.71;117525;1183;23572;-57
2022/03/05 10:42:22;;;;;;;11.10;7.00;;;;;;;5.52;56.63;100742.15;117393;1183;21867;-55
2022/03/05 10:45:04;;;;;;;16.80;9.40;;;;;;;5.53;56.60;100736.59;117312;1185;22912;-55
2022/03/05 10:47:41;;;;;;;11.50;7.70;;;;;;;5.53;56.77;100734.50;117290;1185;23455;-56
2022/03/05 10:50:13;;;;;;;7.40;5.30;;;;;;;5.57;56.45;100733.00;117329;1185;22622;-56
2022/03/05 10:52:50;;;;;;;10.50;5.50;;;;;;;5.59;56.69;100727.46;117360;1185;21916;-57
2022/03/05 10:55:25;;;;;;;10.50;7.00;;;;;;;5.58;56.63;100730.58;117337;1185;24268;-57
2022/03/05 10:58:14;;;;;;;12.10;7.50;;;;;;;5.67;56.71;100724.60;117373;1185;21850;-57
2022/03/05 11:00:49;;;;;;;9.70;6.30;;;;;;;5.81;56.91;100720.78;117386;1184;22844;-56
2022/03/05 11:03:19;;;;;;;10.10;5.90;;;;;;;5.91;56.95;100721.44;117310;1185;21855;-56
2022/03/05 11:05:49;;;;;;;11.30;7.00;;;;;;;5.99;57.12;100720.48;117316;1185;21847;-57
2022/03/05 11:08:17;;;;;;;10.60;7.20;;;;;;;6.10;56.85;100721.34;117355;1185;21854;-57
2022/03/05 11:10:45;;;;;;;9.50;6.10;;;;;;;6.22;56.86;100723.05;117376;1186;21938;-57
2022/03/05 11:13:15;;;;;;;11.30;6.70;;;;;;;6.21;56.50;100723.71;117343;1186;22639;-55
2022/03/05 11:15:45;;;;;;;11.70;7.80;;;;;;;6.18;56.56;100724.04;117213;1185;22811;-57
2022/03/05 11:18:15;;;;;;;12.60;8.10;;;;;;;6.14;56.64;100722.42;117132;1184;22540;-56
2022/03/05 11:20:45;;;;;;;15.70;9.90;;;;;;;6.08;56.68;100718.35;117029;1184;22774;-56
2022/03/05 11:23:13;;;;;;;28.90;13.60;;;;;;;6.01;56.31;100724.17;117329;1186;23619;-56
2022/03/05 11:25:42;;;;;;;20.10;10.50;;;;;;;5.97;56.30;100724.98;117228;1183;22913;-55